sensor_id;sensor_type;location;lat;lon;timestamp;P1;durP1;ratioP1;P2;durP2;ratioP2
77402;SDS011;66472;53.046;8.656;2023-04-15T00:04:53;19.90;;;18.05;;
77402;SDS011;66472;53.046;8.656;2023-04-15T00:09:48;19.03;;;17.43;;
77402;SDS011;66472;53.046;8.656;2023-04-15T00:14:44;20.90;;;19.05;;
77402;SDS011;66472;53.046;8.656;2023-04-15T00:19:39;21.50;;;19.53;;
77402;SDS011;66472;53.046;8.656;2023-04-15T00:24:34;20.97;;;19.20;;
77402;SDS011;66472;53.046;8.656;2023-04-15T00:29:31;19.70;;;17.93;;
77402;SDS011;66472;53.046;8.656;2023-04-15T00:34:26;21.03;;;19.13;;
77402;SDS011;66472;53.046;8.656;2023-04-15T00:39:22;20.03;;;18.30;;
77402;SDS011;66472;53.046;8.656;2023-04-15T00:44:17;18.87;;;17.23;;
77402;SDS011;66472;53.046;8.656;2023-04-15T00:49:13;17.87;;;16.13;;
77402;SDS011;66472;53.046;8.656;2023-04-15T00:54:08;17.70;;;16.15;;
77402;SDS011;66472;53.046;8.656;2023-04-15T00:59:03;19.50;;;17.85;;
77402;SDS011;66472;53.046;8.656;2023-04-15T01:04:00;19.03;;;17.43;;
77402;SDS011;66472;53.046;8.656;2023-04-15T01:08:56;18.10;;;16.53;;
77402;SDS011;66472;53.046;8.656;2023-04-15T01:13:52;19.13;;;17.43;;
77402;SDS011;66472;53.046;8.656;2023-04-15T01:18:47;17.87;;;16.27;;
77402;SDS011;66472;53.046;8.656;2023-04-15T01:23:43;18.47;;;16.77;;
77402;SDS011;66472;53.046;8.656;2023-04-15T01:28:39;18.33;;;16.83;;
77402;SDS011;66472;53.046;8.656;2023-04-15T01:33:35;19.63;;;17.90;;
77402;SDS011;66472;53.046;8.656;2023-04-15T01:38:30;18.13;;;16.43;;
77402;SDS011;66472;53.046;8.656;2023-04-15T01:43:26;19.10;;;17.40;;
77402;SDS011;66472;53.046;8.656;2023-04-15T01:48:22;21.13;;;19.23;;
77402;SDS011;66472;53.046;8.656;2023-04-15T01:53:17;18.10;;;16.57;;
77402;SDS011;66472;53.046;8.656;2023-04-15T01:58:12;18.70;;;17.10;;
77402;SDS011;66472;53.046;8.656;2023-04-15T02:03:08;19.33;;;17.73;;
77402;SDS011;66472;53.046;8.656;2023-04-15T02:08:05;20.30;;;18.60;;
77402;SDS011;66472;53.046;8.656;2023-04-15T02:13:00;20.65;;;18.80;;
77402;SDS011;66472;53.046;8.656;2023-04-15T02:17:57;20.23;;;18.43;;
77402;SDS011;66472;53.046;8.656;2023-04-15T02:22:53;20.10;;;18.27;;
77402;SDS011;66472;53.046;8.656;2023-04-15T02:27:48;19.67;;;18.10;;
77402;SDS011;66472;53.046;8.656;2023-04-15T02:32:45;20.13;;;18.20;;
77402;SDS011;66472;53.046;8.656;2023-04-15T02:37:41;18.33;;;16.70;;
77402;SDS011;66472;53.046;8.656;2023-04-15T02:42:40;20.93;;;18.93;;
77402;SDS011;66472;53.046;8.656;2023-04-15T02:47:38;20.43;;;18.37;;
77402;SDS011;66472;53.046;8.656;2023-04-15T02:52:38;21.40;;;19.40;;
77402;SDS011;66472;53.046;8.656;2023-04-15T02:57:35;22.03;;;20.17;;
77402;SDS011;66472;53.046;8.656;2023-04-15T03:02:37;20.97;;;19.10;;
77402;SDS011;66472;53.046;8.656;2023-04-15T03:07:33;21.87;;;19.97;;
77402;SDS011;66472;53.046;8.656;2023-04-15T03:12:30;20.43;;;18.53;;
77402;SDS011;66472;53.046;8.656;2023-04-15T03:17:26;19.93;;;18.23;;
77402;SDS011;66472;53.046;8.656;2023-04-15T03:22:22;21.37;;;19.30;;
77402;SDS011;66472;53.046;8.656;2023-04-15T03:27:18;21.57;;;19.40;;
77402;SDS011;66472;53.046;8.656;2023-04-15T03:32:13;110.70;;;104.15;;
77402;SDS011;66472;53.046;8.656;2023-04-15T03:37:09;25.70;;;23.60;;
77402;SDS011;66472;53.046;8.656;2023-04-15T03:42:04;20.98;;;19.10;;
77402;SDS011;66472;53.046;8.656;2023-04-15T03:47:00;20.50;;;18.77;;
77402;SDS011;66472;53.046;8.656;2023-04-15T03:51:55;22.07;;;19.80;;
77402;SDS011;66472;53.046;8.656;2023-04-15T03:56:51;22.23;;;20.33;;
77402;SDS011;66472;53.046;8.656;2023-04-15T04:01:46;22.17;;;20.00;;
77402;SDS011;66472;53.046;8.656;2023-04-15T04:06:42;20.67;;;18.97;;
77402;SDS011;66472;53.046;8.656;2023-04-15T04:11:37;23.07;;;20.67;;
77402;SDS011;66472;53.046;8.656;2023-04-15T04:16:32;22.47;;;20.47;;
77402;SDS011;66472;53.046;8.656;2023-04-15T04:21:28;22.48;;;20.52;;
77402;SDS011;66472;53.046;8.656;2023-04-15T04:26:23;24.00;;;21.67;;
77402;SDS011;66472;53.046;8.656;2023-04-15T04:31:18;22.77;;;20.73;;
77402;SDS011;66472;53.046;8.656;2023-04-15T04:36:13;23.60;;;21.33;;
77402;SDS011;66472;53.046;8.656;2023-04-15T04:41:09;24.57;;;22.37;;
77402;SDS011;66472;53.046;8.656;2023-04-15T04:46:04;28.03;;;25.57;;
77402;SDS011;66472;53.046;8.656;2023-04-15T04:51:00;27.57;;;25.07;;
77402;SDS011;66472;53.046;8.656;2023-04-15T04:55:56;28.33;;;25.60;;
77402;SDS011;66472;53.046;8.656;2023-04-15T05:00:52;28.80;;;25.87;;
77402;SDS011;66472;53.046;8.656;2023-04-15T05:05:47;30.70;;;27.87;;
77402;SDS011;66472;53.046;8.656;2023-04-15T05:10:43;30.37;;;27.63;;
77402;SDS011;66472;53.046;8.656;2023-04-15T05:15:38;30.95;;;28.00;;
77402;SDS011;66472;53.046;8.656;2023-04-15T05:20:35;31.57;;;28.50;;
77402;SDS011;66472;53.046;8.656;2023-04-15T05:25:30;32.73;;;29.60;;
77402;SDS011;66472;53.046;8.656;2023-04-15T05:30:26;32.83;;;29.77;;
77402;SDS011;66472;53.046;8.656;2023-04-15T05:35:21;34.23;;;31.00;;
77402;SDS011;66472;53.046;8.656;2023-04-15T05:40:17;35.37;;;31.80;;
77402;SDS011;66472;53.046;8.656;2023-04-15T05:45:12;36.50;;;33.07;;
77402;SDS011;66472;53.046;8.656;2023-04-15T05:50:08;33.30;;;30.13;;
77402;SDS011;66472;53.046;8.656;2023-04-15T05:55:03;34.93;;;31.50;;
77402;SDS011;66472;53.046;8.656;2023-04-15T05:59:59;38.23;;;34.50;;
77402;SDS011;66472;53.046;8.656;2023-04-15T06:04:54;39.28;;;35.63;;
77402;SDS011;66472;53.046;8.656;2023-04-15T06:09:49;38.50;;;34.75;;
77402;SDS011;66472;53.046;8.656;2023-04-15T06:14:45;37.47;;;34.17;;
77402;SDS011;66472;53.046;8.656;2023-04-15T06:19:40;36.33;;;33.03;;
77402;SDS011;66472;53.046;8.656;2023-04-15T06:24:35;39.08;;;35.53;;
77402;SDS011;66472;53.046;8.656;2023-04-15T06:29:31;38.13;;;34.43;;
77402;SDS011;66472;53.046;8.656;2023-04-15T06:34:26;42.00;;;38.20;;
77402;SDS011;66472;53.046;8.656;2023-04-15T06:39:21;41.03;;;36.93;;
77402;SDS011;66472;53.046;8.656;2023-04-15T06:44:16;40.47;;;36.87;;
77402;SDS011;66472;53.046;8.656;2023-04-15T06:49:12;43.03;;;39.37;;
77402;SDS011;66472;53.046;8.656;2023-04-15T06:54:07;44.60;;;40.73;;
77402;SDS011;66472;53.046;8.656;2023-04-15T06:59:03;49.60;;;45.10;;
77402;SDS011;66472;53.046;8.656;2023-04-15T07:03:58;45.20;;;41.13;;
77402;SDS011;66472;53.046;8.656;2023-04-15T07:08:54;47.37;;;43.30;;
77402;SDS011;66472;53.046;8.656;2023-04-15T07:13:49;47.97;;;43.87;;
77402;SDS011;66472;53.046;8.656;2023-04-15T07:18:45;48.65;;;44.88;;
77402;SDS011;66472;53.046;8.656;2023-04-15T07:23:40;48.53;;;44.60;;
77402;SDS011;66472;53.046;8.656;2023-04-15T07:28:36;50.33;;;46.50;;
77402;SDS011;66472;53.046;8.656;2023-04-15T07:33:31;48.60;;;44.93;;
77402;SDS011;66472;53.046;8.656;2023-04-15T07:38:26;51.87;;;47.43;;
77402;SDS011;66472;53.046;8.656;2023-04-15T07:43:22;49.57;;;45.97;;
77402;SDS011;66472;53.046;8.656;2023-04-15T07:48:17;45.40;;;42.20;;
77402;SDS011;66472;53.046;8.656;2023-04-15T07:53:13;48.40;;;44.83;;
77402;SDS011;66472;53.046;8.656;2023-04-15T07:58:08;45.87;;;42.83;;
77402;SDS011;66472;53.046;8.656;2023-04-15T08:03:04;46.30;;;43.30;;
77402;SDS011;66472;53.046;8.656;2023-04-15T08:07:59;45.60;;;42.70;;
77402;SDS011;66472;53.046;8.656;2023-04-15T08:12:54;42.77;;;40.10;;
77402;SDS011;66472;53.046;8.656;2023-04-15T08:17:50;41.17;;;38.67;;
77402;SDS011;66472;53.046;8.656;2023-04-15T08:22:45;47.27;;;44.37;;
77402;SDS011;66472;53.046;8.656;2023-04-15T08:27:45;37.27;;;34.97;;
77402;SDS011;66472;53.046;8.656;2023-04-15T08:32:41;41.47;;;38.90;;
77402;SDS011;66472;53.046;8.656;2023-04-15T08:37:36;40.43;;;37.97;;
77402;SDS011;66472;53.046;8.656;2023-04-15T08:42:34;44.57;;;42.00;;
77402;SDS011;66472;53.046;8.656;2023-04-15T08:47:31;45.47;;;42.67;;
77402;SDS011;66472;53.046;8.656;2023-04-15T08:52:29;45.33;;;42.67;;
77402;SDS011;66472;53.046;8.656;2023-04-15T08:57:28;43.73;;;41.13;;
77402;SDS011;66472;53.046;8.656;2023-04-15T09:02:23;42.20;;;39.73;;
77402;SDS011;66472;53.046;8.656;2023-04-15T09:07:20;45.37;;;42.77;;
77402;SDS011;66472;53.046;8.656;2023-04-15T09:12:15;47.87;;;45.07;;
77402;SDS011;66472;53.046;8.656;2023-04-15T09:17:11;51.57;;;47.37;;
77402;SDS011;66472;53.046;8.656;2023-04-15T09:22:06;47.47;;;44.67;;
77402;SDS011;66472;53.046;8.656;2023-04-15T09:27:01;46.80;;;44.03;;
77402;SDS011;66472;53.046;8.656;2023-04-15T09:32:08;43.60;;;40.43;;
77402;SDS011;66472;53.046;8.656;2023-04-15T09:37:03;43.30;;;40.70;;
77402;SDS011;66472;53.046;8.656;2023-04-15T09:42:03;45.67;;;43.10;;
77402;SDS011;66472;53.046;8.656;2023-04-15T09:46:58;45.10;;;42.50;;
77402;SDS011;66472;53.046;8.656;2023-04-15T09:51:58;43.00;;;40.43;;
77402;SDS011;66472;53.046;8.656;2023-04-15T09:56:54;43.00;;;40.47;;
77402;SDS011;66472;53.046;8.656;2023-04-15T10:01:50;43.93;;;41.40;;
77402;SDS011;66472;53.046;8.656;2023-04-15T10:06:46;42.23;;;39.90;;
77402;SDS011;66472;53.046;8.656;2023-04-15T10:11:41;46.90;;;44.10;;
77402;SDS011;66472;53.046;8.656;2023-04-15T10:16:37;45.87;;;43.27;;
77402;SDS011;66472;53.046;8.656;2023-04-15T10:21:35;44.77;;;42.13;;
77402;SDS011;66472;53.046;8.656;2023-04-15T10:26:31;47.97;;;45.17;;
77402;SDS011;66472;53.046;8.656;2023-04-15T10:31:27;48.83;;;46.22;;
77402;SDS011;66472;53.046;8.656;2023-04-15T10:36:22;53.97;;;50.47;;
77402;SDS011;66472;53.046;8.656;2023-04-15T10:41:18;50.70;;;47.80;;
77402;SDS011;66472;53.046;8.656;2023-04-15T10:51:29;38.57;;;36.40;;
77402;SDS011;66472;53.046;8.656;2023-04-15T10:56:27;42.10;;;39.40;;
77402;SDS011;66472;53.046;8.656;2023-04-15T11:01:22;39.10;;;36.73;;
77402;SDS011;66472;53.046;8.656;2023-04-15T11:06:43;41.87;;;39.20;;
77402;SDS011;66472;53.046;8.656;2023-04-15T11:16:54;40.20;;;37.60;;
77402;SDS011;66472;53.046;8.656;2023-04-15T11:21:50;37.83;;;35.33;;
77402;SDS011;66472;53.046;8.656;2023-04-15T11:26:46;41.90;;;39.33;;
77402;SDS011;66472;53.046;8.656;2023-04-15T11:31:41;42.83;;;39.97;;
77402;SDS011;66472;53.046;8.656;2023-04-15T11:36:43;40.10;;;37.27;;
77402;SDS011;66472;53.046;8.656;2023-04-15T11:41:40;38.77;;;36.27;;
77402;SDS011;66472;53.046;8.656;2023-04-15T11:46:37;39.63;;;36.90;;
77402;SDS011;66472;53.046;8.656;2023-04-15T11:51:32;42.50;;;39.67;;
77402;SDS011;66472;53.046;8.656;2023-04-15T11:56:28;40.93;;;38.00;;
77402;SDS011;66472;53.046;8.656;2023-04-15T12:01:36;45.33;;;41.60;;
77402;SDS011;66472;53.046;8.656;2023-04-15T12:06:34;43.23;;;39.60;;
77402;SDS011;66472;53.046;8.656;2023-04-15T12:16:26;45.77;;;41.83;;
77402;SDS011;66472;53.046;8.656;2023-04-15T12:21:22;49.47;;;45.40;;
77402;SDS011;66472;53.046;8.656;2023-04-15T12:26:24;49.00;;;44.93;;
77402;SDS011;66472;53.046;8.656;2023-04-15T12:31:20;47.97;;;43.70;;
77402;SDS011;66472;53.046;8.656;2023-04-15T12:36:15;47.37;;;42.77;;
77402;SDS011;66472;53.046;8.656;2023-04-15T12:41:10;50.08;;;45.67;;
77402;SDS011;66472;53.046;8.656;2023-04-15T12:46:06;48.50;;;44.37;;
77402;SDS011;66472;53.046;8.656;2023-04-15T12:51:02;46.23;;;42.07;;
77402;SDS011;66472;53.046;8.656;2023-04-15T12:55:57;49.88;;;45.17;;
77402;SDS011;66472;53.046;8.656;2023-04-15T13:00:52;53.00;;;47.80;;
77402;SDS011;66472;53.046;8.656;2023-04-15T13:05:48;50.77;;;46.23;;
77402;SDS011;66472;53.046;8.656;2023-04-15T13:10:43;51.03;;;46.33;;
77402;SDS011;66472;53.046;8.656;2023-04-15T13:15:38;51.10;;;46.23;;
77402;SDS011;66472;53.046;8.656;2023-04-15T13:20:34;51.13;;;46.13;;
77402;SDS011;66472;53.046;8.656;2023-04-15T13:25:29;53.35;;;48.35;;
77402;SDS011;66472;53.046;8.656;2023-04-15T13:30:24;49.93;;;45.23;;
77402;SDS011;66472;53.046;8.656;2023-04-15T13:35:20;51.07;;;46.20;;
77402;SDS011;66472;53.046;8.656;2023-04-15T13:40:15;53.27;;;48.07;;
77402;SDS011;66472;53.046;8.656;2023-04-15T13:45:10;60.40;;;54.75;;
77402;SDS011;66472;53.046;8.656;2023-04-15T13:50:06;50.30;;;45.57;;
77402;SDS011;66472;53.046;8.656;2023-04-15T13:55:02;41.37;;;37.57;;
77402;SDS011;66472;53.046;8.656;2023-04-15T13:59:57;31.77;;;28.57;;
77402;SDS011;66472;53.046;8.656;2023-04-15T14:04:52;30.47;;;27.33;;
77402;SDS011;66472;53.046;8.656;2023-04-15T14:09:47;32.27;;;26.13;;
77402;SDS011;66472;53.046;8.656;2023-04-15T14:14:43;31.00;;;27.33;;
77402;SDS011;66472;53.046;8.656;2023-04-15T14:19:38;33.03;;;27.33;;
77402;SDS011;66472;53.046;8.656;2023-04-15T14:24:33;33.55;;;29.70;;
77402;SDS011;66472;53.046;8.656;2023-04-15T14:29:29;35.50;;;31.57;;
77402;SDS011;66472;53.046;8.656;2023-04-15T14:34:25;35.40;;;31.17;;
77402;SDS011;66472;53.046;8.656;2023-04-15T14:39:20;34.63;;;31.08;;
77402;SDS011;66472;53.046;8.656;2023-04-15T14:44:15;35.50;;;31.80;;
77402;SDS011;66472;53.046;8.656;2023-04-15T14:49:11;32.37;;;28.87;;
77402;SDS011;66472;53.046;8.656;2023-04-15T14:54:06;34.75;;;31.15;;
77402;SDS011;66472;53.046;8.656;2023-04-15T14:59:01;34.40;;;27.03;;
77402;SDS011;66472;53.046;8.656;2023-04-15T15:03:56;32.67;;;29.13;;
77402;SDS011;66472;53.046;8.656;2023-04-15T15:08:52;32.60;;;29.50;;
77402;SDS011;66472;53.046;8.656;2023-04-15T15:13:47;31.40;;;28.20;;
77402;SDS011;66472;53.046;8.656;2023-04-15T15:18:42;30.30;;;27.17;;
77402;SDS011;66472;53.046;8.656;2023-04-15T15:23:37;29.13;;;26.10;;
77402;SDS011;66472;53.046;8.656;2023-04-15T15:28:33;31.88;;;27.30;;
77402;SDS011;66472;53.046;8.656;2023-04-15T15:33:28;31.73;;;28.07;;
77402;SDS011;66472;53.046;8.656;2023-04-15T15:38:24;31.95;;;28.63;;
77402;SDS011;66472;53.046;8.656;2023-04-15T15:43:19;31.10;;;27.13;;
77402;SDS011;66472;53.046;8.656;2023-04-15T15:48:14;34.00;;;30.13;;
77402;SDS011;66472;53.046;8.656;2023-04-15T15:53:10;33.80;;;30.20;;
77402;SDS011;66472;53.046;8.656;2023-04-15T15:58:06;31.97;;;28.57;;
77402;SDS011;66472;53.046;8.656;2023-04-15T16:03:01;31.10;;;27.73;;
77402;SDS011;66472;53.046;8.656;2023-04-15T16:07:56;32.23;;;28.93;;
77402;SDS011;66472;53.046;8.656;2023-04-15T16:12:52;33.20;;;29.50;;
77402;SDS011;66472;53.046;8.656;2023-04-15T16:17:47;35.53;;;31.93;;
77402;SDS011;66472;53.046;8.656;2023-04-15T16:22:42;36.00;;;32.03;;
77402;SDS011;66472;53.046;8.656;2023-04-15T16:27:38;38.20;;;34.50;;
77402;SDS011;66472;53.046;8.656;2023-04-15T16:32:34;39.40;;;35.37;;
77402;SDS011;66472;53.046;8.656;2023-04-15T16:37:30;41.47;;;37.53;;
77402;SDS011;66472;53.046;8.656;2023-04-15T16:42:27;45.17;;;37.67;;
77402;SDS011;66472;53.046;8.656;2023-04-15T16:47:22;39.87;;;35.17;;
77402;SDS011;66472;53.046;8.656;2023-04-15T16:52:18;43.37;;;38.70;;
77402;SDS011;66472;53.046;8.656;2023-04-15T16:57:13;44.93;;;40.37;;
77402;SDS011;66472;53.046;8.656;2023-04-15T17:02:09;50.43;;;43.53;;
77402;SDS011;66472;53.046;8.656;2023-04-15T17:07:05;50.67;;;44.10;;
77402;SDS011;66472;53.046;8.656;2023-04-15T17:12:00;49.13;;;44.37;;
77402;SDS011;66472;53.046;8.656;2023-04-15T17:16:58;50.87;;;45.80;;
77402;SDS011;66472;53.046;8.656;2023-04-15T17:21:53;54.07;;;49.07;;
77402;SDS011;66472;53.046;8.656;2023-04-15T17:26:48;55.97;;;50.97;;
77402;SDS011;66472;53.046;8.656;2023-04-15T17:31:44;55.27;;;49.60;;
77402;SDS011;66472;53.046;8.656;2023-04-15T17:36:39;48.50;;;43.83;;
77402;SDS011;66472;53.046;8.656;2023-04-15T17:41:35;46.93;;;41.73;;
77402;SDS011;66472;53.046;8.656;2023-04-15T17:46:30;44.13;;;39.93;;
77402;SDS011;66472;53.046;8.656;2023-04-15T17:51:25;42.23;;;37.57;;
77402;SDS011;66472;53.046;8.656;2023-04-15T17:56:34;41.33;;;37.13;;
77402;SDS011;66472;53.046;8.656;2023-04-15T18:01:30;46.60;;;41.90;;
77402;SDS011;66472;53.046;8.656;2023-04-15T18:06:25;48.87;;;42.20;;
77402;SDS011;66472;53.046;8.656;2023-04-15T18:11:21;44.83;;;39.97;;
77402;SDS011;66472;53.046;8.656;2023-04-15T18:16:16;46.50;;;41.80;;
77402;SDS011;66472;53.046;8.656;2023-04-15T18:21:11;45.60;;;41.20;;
77402;SDS011;66472;53.046;8.656;2023-04-15T18:26:06;44.38;;;40.22;;
77402;SDS011;66472;53.046;8.656;2023-04-15T18:31:02;41.90;;;37.80;;
77402;SDS011;66472;53.046;8.656;2023-04-15T18:35:57;36.67;;;32.93;;
77402;SDS011;66472;53.046;8.656;2023-04-15T18:40:53;38.13;;;34.07;;
77402;SDS011;66472;53.046;8.656;2023-04-15T18:45:49;37.60;;;33.67;;
77402;SDS011;66472;53.046;8.656;2023-04-15T18:50:45;39.93;;;35.97;;
77402;SDS011;66472;53.046;8.656;2023-04-15T18:55:40;36.73;;;32.83;;
77402;SDS011;66472;53.046;8.656;2023-04-15T19:00:35;34.43;;;30.70;;
77402;SDS011;66472;53.046;8.656;2023-04-15T19:05:35;34.83;;;31.23;;
77402;SDS011;66472;53.046;8.656;2023-04-15T19:10:30;35.80;;;28.60;;
77402;SDS011;66472;53.046;8.656;2023-04-15T19:15:27;29.73;;;26.73;;
77402;SDS011;66472;53.046;8.656;2023-04-15T19:20:23;26.13;;;23.53;;
77402;SDS011;66472;53.046;8.656;2023-04-15T19:25:18;24.63;;;22.40;;
77402;SDS011;66472;53.046;8.656;2023-04-15T19:30:13;24.73;;;22.37;;
77402;SDS011;66472;53.046;8.656;2023-04-15T19:35:10;25.60;;;23.03;;
77402;SDS011;66472;53.046;8.656;2023-04-15T19:40:06;24.97;;;22.67;;
77402;SDS011;66472;53.046;8.656;2023-04-15T19:45:02;25.07;;;22.37;;
77402;SDS011;66472;53.046;8.656;2023-04-15T19:49:58;24.03;;;21.93;;
77402;SDS011;66472;53.046;8.656;2023-04-15T19:54:53;23.57;;;21.30;;
77402;SDS011;66472;53.046;8.656;2023-04-15T19:59:48;23.60;;;21.60;;
77402;SDS011;66472;53.046;8.656;2023-04-15T20:04:43;21.35;;;19.35;;
77402;SDS011;66472;53.046;8.656;2023-04-15T20:09:39;22.00;;;19.50;;
77402;SDS011;66472;53.046;8.656;2023-04-15T20:14:34;21.40;;;19.23;;
77402;SDS011;66472;53.046;8.656;2023-04-15T20:19:30;24.17;;;18.33;;
77402;SDS011;66472;53.046;8.656;2023-04-15T20:24:25;19.83;;;17.83;;
77402;SDS011;66472;53.046;8.656;2023-04-15T20:29:20;21.03;;;18.10;;
77402;SDS011;66472;53.046;8.656;2023-04-15T20:34:16;20.77;;;18.17;;
77402;SDS011;66472;53.046;8.656;2023-04-15T20:39:11;19.85;;;18.05;;
77402;SDS011;66472;53.046;8.656;2023-04-15T20:44:06;19.20;;;17.23;;
77402;SDS011;66472;53.046;8.656;2023-04-15T20:49:02;18.90;;;17.00;;
77402;SDS011;66472;53.046;8.656;2023-04-15T20:53:57;21.37;;;19.37;;
77402;SDS011;66472;53.046;8.656;2023-04-15T20:58:52;20.83;;;18.88;;
77402;SDS011;66472;53.046;8.656;2023-04-15T21:03:48;21.93;;;19.90;;
77402;SDS011;66472;53.046;8.656;2023-04-15T21:08:43;21.53;;;19.53;;
77402;SDS011;66472;53.046;8.656;2023-04-15T21:13:38;21.90;;;19.73;;
77402;SDS011;66472;53.046;8.656;2023-04-15T21:18:33;21.35;;;19.25;;
77402;SDS011;66472;53.046;8.656;2023-04-15T21:23:29;21.83;;;19.83;;
77402;SDS011;66472;53.046;8.656;2023-04-15T21:28:24;22.67;;;20.57;;
77402;SDS011;66472;53.046;8.656;2023-04-15T21:33:22;21.27;;;19.07;;
77402;SDS011;66472;53.046;8.656;2023-04-15T21:38:17;22.67;;;20.47;;
77402;SDS011;66472;53.046;8.656;2023-04-15T21:43:12;22.02;;;19.77;;
77402;SDS011;66472;53.046;8.656;2023-04-15T21:48:08;23.20;;;20.77;;
77402;SDS011;66472;53.046;8.656;2023-04-15T21:53:05;23.33;;;20.93;;
77402;SDS011;66472;53.046;8.656;2023-04-15T21:58:00;23.90;;;21.40;;
77402;SDS011;66472;53.046;8.656;2023-04-15T22:02:56;21.67;;;19.43;;
77402;SDS011;66472;53.046;8.656;2023-04-15T22:07:52;23.27;;;20.83;;
77402;SDS011;66472;53.046;8.656;2023-04-15T22:12:47;21.87;;;19.57;;
77402;SDS011;66472;53.046;8.656;2023-04-15T22:17:42;24.27;;;21.77;;
77402;SDS011;66472;53.046;8.656;2023-04-15T22:22:37;25.47;;;22.03;;
77402;SDS011;66472;53.046;8.656;2023-04-15T22:27:33;23.63;;;21.25;;
77402;SDS011;66472;53.046;8.656;2023-04-15T22:32:28;22.50;;;20.30;;
77402;SDS011;66472;53.046;8.656;2023-04-15T22:37:23;23.33;;;21.00;;
77402;SDS011;66472;53.046;8.656;2023-04-15T22:42:19;23.43;;;21.30;;
77402;SDS011;66472;53.046;8.656;2023-04-15T22:47:14;24.15;;;21.63;;
77402;SDS011;66472;53.046;8.656;2023-04-15T22:52:10;27.47;;;24.43;;
77402;SDS011;66472;53.046;8.656;2023-04-15T22:57:05;24.90;;;22.30;;
77402;SDS011;66472;53.046;8.656;2023-04-15T23:02:01;26.45;;;23.58;;
77402;SDS011;66472;53.046;8.656;2023-04-15T23:06:56;28.35;;;25.65;;
77402;SDS011;66472;53.046;8.656;2023-04-15T23:11:51;25.70;;;23.17;;
77402;SDS011;66472;53.046;8.656;2023-04-15T23:16:47;28.63;;;25.67;;
77402;SDS011;66472;53.046;8.656;2023-04-15T23:21:42;26.67;;;24.07;;
77402;SDS011;66472;53.046;8.656;2023-04-15T23:26:37;26.53;;;23.93;;
77402;SDS011;66472;53.046;8.656;2023-04-15T23:31:33;25.60;;;23.03;;
77402;SDS011;66472;53.046;8.656;2023-04-15T23:36:28;27.13;;;24.03;;
77402;SDS011;66472;53.046;8.656;2023-04-15T23:41:23;24.60;;;22.17;;
77402;SDS011;66472;53.046;8.656;2023-04-15T23:46:19;26.42;;;23.70;;
77402;SDS011;66472;53.046;8.656;2023-04-15T23:51:15;30.70;;;25.37;;
77402;SDS011;66472;53.046;8.656;2023-04-15T23:56:10;25.50;;;21.43;;
